createdAt,value
2022-08-27T00:00:02.280Z,424.67
2022-08-27T05:00:35.669Z,193.27
2022-08-27T05:15:36.514Z,422.13
2022-08-27T05:45:37.460Z,164.43
2022-08-27T06:00:38.288Z,168.07
2022-08-27T06:15:40.544Z,185.40
2022-08-27T06:30:39.584Z,156.35
2022-08-27T06:45:41.063Z,161.10
2022-08-27T07:00:49.242Z,189.95
2022-08-27T07:30:58.004Z,183.72
2022-08-27T08:15:55.004Z,179.68
2022-08-27T08:30:55.260Z,195.38
2022-08-27T08:45:56.016Z,214.42
2022-08-27T09:46:03.557Z,175.07
2022-08-27T10:01:04.818Z,187.03
2022-08-27T10:16:03.439Z,194.80
2022-08-27T10:31:06.292Z,196.28
2022-08-27T10:54:09.037Z,209.98
2022-08-27T11:09:08.269Z,225.38
2022-08-27T11:24:08.417Z,245.57
2022-08-27T11:39:09.283Z,307.37
2022-08-27T11:54:10.886Z,343.80
2022-08-27T12:09:16.187Z,339.30
2022-08-27T12:24:11.163Z,344.45
2022-08-27T12:39:12.686Z,283.38
2022-08-27T12:54:11.286Z,299.52
2022-08-27T13:09:11.412Z,284.50
2022-08-27T13:24:12.062Z,263.32
2022-08-27T13:39:13.687Z,257.83
2022-08-27T13:54:13.604Z,251.47
2022-08-27T14:09:13.961Z,259.02
2022-08-27T14:24:14.411Z,241.08
2022-08-27T14:39:15.452Z,236.37
2022-08-27T14:54:15.564Z,245.90
2022-08-27T15:09:16.315Z,205.85
2022-08-27T15:24:17.274Z,184.90
2022-08-27T15:39:19.101Z,193.15
2022-08-27T15:54:18.725Z,191.05
2022-08-27T16:09:29.582Z,199.60
2022-08-27T16:24:20.098Z,170.32
2022-08-27T16:39:20.233Z,174.75
2022-08-27T17:24:22.088Z,164.18
2022-08-27T17:39:22.832Z,147.53
2022-08-27T17:54:24.821Z,138.47
2022-08-27T18:09:24.414Z,108.65
2022-08-27T18:24:25.386Z,111.95
2022-08-27T18:39:26.221Z,112.57
2022-08-27T18:54:26.523Z,124.40
2022-08-27T19:09:40.968Z,147.87
2022-08-27T19:24:27.110Z,139.92
2022-08-27T19:39:27.859Z,142.37
2022-08-27T19:54:34.071Z,136.00
2022-08-27T20:09:29.383Z,161.90
2022-08-27T20:24:29.867Z,163.00
2022-08-27T20:39:30.165Z,168.00
2022-08-27T21:24:31.269Z,235.78
2022-08-27T21:39:32.209Z,282.43
2022-08-27T21:54:36.808Z,429.27
2022-08-27T22:09:32.844Z,434.18
2022-08-27T22:39:33.222Z,486.62
2022-08-27T22:54:40.290Z,391.55
2022-08-27T23:09:34.962Z,212.20
2022-08-27T23:24:37.559Z,175.00
2022-08-27T23:39:35.694Z,197.17
